sensor_id;sensor_type;location;lat;lon;timestamp;temperature;humidity
20610;DHT22;10463;52.378;9.688;2023-02-28T00:01:45;21.50;21.10
20610;DHT22;10463;52.378;9.688;2023-02-28T00:04:30;21.50;21.10
20610;DHT22;10463;52.378;9.688;2023-02-28T00:07:15;21.50;21.10
20610;DHT22;10463;52.378;9.688;2023-02-28T00:09:59;21.50;21.10
20610;DHT22;10463;52.378;9.688;2023-02-28T00:12:44;21.50;21.10
20610;DHT22;10463;52.378;9.688;2023-02-28T00:15:30;21.50;21.10
20610;DHT22;10463;52.378;9.688;2023-02-28T00:18:15;21.50;21.10
20610;DHT22;10463;52.378;9.688;2023-02-28T00:21:00;21.50;21.20
20610;DHT22;10463;52.378;9.688;2023-02-28T00:23:45;21.50;21.10
20610;DHT22;10463;52.378;9.688;2023-02-28T00:26:30;21.50;21.10
20610;DHT22;10463;52.378;9.688;2023-02-28T00:29:14;21.50;21.10
20610;DHT22;10463;52.378;9.688;2023-02-28T00:32:01;21.50;21.10
20610;DHT22;10463;52.378;9.688;2023-02-28T00:34:46;21.50;21.10
20610;DHT22;10463;52.378;9.688;2023-02-28T00:37:31;21.40;21.10
20610;DHT22;10463;52.378;9.688;2023-02-28T00:40:16;21.40;21.10
20610;DHT22;10463;52.378;9.688;2023-02-28T00:43:01;21.40;21.10
20610;DHT22;10463;52.378;9.688;2023-02-28T00:45:46;21.50;21.10
20610;DHT22;10463;52.378;9.688;2023-02-28T00:48:35;21.40;21.10
20610;DHT22;10463;52.378;9.688;2023-02-28T00:51:20;21.40;21.10
20610;DHT22;10463;52.378;9.688;2023-02-28T00:54:05;21.40;21.10
20610;DHT22;10463;52.378;9.688;2023-02-28T00:56:50;21.40;21.10
20610;DHT22;10463;52.378;9.688;2023-02-28T00:59:35;21.40;21.10
20610;DHT22;10463;52.378;9.688;2023-02-28T01:02:22;21.40;21.10
20610;DHT22;10463;52.378;9.688;2023-02-28T01:05:09;21.40;21.10
20610;DHT22;10463;52.378;9.688;2023-02-28T01:07:54;21.40;21.10
20610;DHT22;10463;52.378;9.688;2023-02-28T01:10:39;21.40;21.10
20610;DHT22;10463;52.378;9.688;2023-02-28T01:13:25;21.40;21.10
20610;DHT22;10463;52.378;9.688;2023-02-28T01:16:10;21.30;21.00
20610;DHT22;10463;52.378;9.688;2023-02-28T01:18:54;21.30;21.00
20610;DHT22;10463;52.378;9.688;2023-02-28T01:21:41;21.30;21.00
20610;DHT22;10463;52.378;9.688;2023-02-28T01:24:26;21.30;21.10
20610;DHT22;10463;52.378;9.688;2023-02-28T01:27:10;21.30;21.00
20610;DHT22;10463;52.378;9.688;2023-02-28T01:29:55;21.30;21.10
20610;DHT22;10463;52.378;9.688;2023-02-28T01:32:40;21.30;21.00
20610;DHT22;10463;52.378;9.688;2023-02-28T01:35:25;21.30;21.10
20610;DHT22;10463;52.378;9.688;2023-02-28T01:38:11;21.30;21.00
20610;DHT22;10463;52.378;9.688;2023-02-28T01:40:56;21.30;21.10
20610;DHT22;10463;52.378;9.688;2023-02-28T01:43:59;21.30;21.00
20610;DHT22;10463;52.378;9.688;2023-02-28T01:46:44;21.30;21.10
20610;DHT22;10463;52.378;9.688;2023-02-28T01:49:28;21.30;21.10
20610;DHT22;10463;52.378;9.688;2023-02-28T01:52:15;21.30;21.10
20610;DHT22;10463;52.378;9.688;2023-02-28T01:55:06;21.30;21.10
20610;DHT22;10463;52.378;9.688;2023-02-28T01:57:58;21.20;21.00
20610;DHT22;10463;52.378;9.688;2023-02-28T02:00:44;21.30;21.10
20610;DHT22;10463;52.378;9.688;2023-02-28T02:03:29;21.30;21.10
20610;DHT22;10463;52.378;9.688;2023-02-28T02:06:14;21.20;21.00
20610;DHT22;10463;52.378;9.688;2023-02-28T02:08:59;21.20;21.10
20610;DHT22;10463;52.378;9.688;2023-02-28T02:11:46;21.20;21.00
20610;DHT22;10463;52.378;9.688;2023-02-28T02:14:47;21.20;21.00
20610;DHT22;10463;52.378;9.688;2023-02-28T02:17:39;21.20;21.10
20610;DHT22;10463;52.378;9.688;2023-02-28T02:21:16;21.20;21.10
20610;DHT22;10463;52.378;9.688;2023-02-28T02:24:31;21.20;21.10
20610;DHT22;10463;52.378;9.688;2023-02-28T02:27:42;21.20;21.10
20610;DHT22;10463;52.378;9.688;2023-02-28T02:31:06;21.20;21.10
20610;DHT22;10463;52.378;9.688;2023-02-28T02:34:37;21.20;21.10
20610;DHT22;10463;52.378;9.688;2023-02-28T02:37:35;21.20;21.10
20610;DHT22;10463;52.378;9.688;2023-02-28T02:40:25;21.10;21.00
20610;DHT22;10463;52.378;9.688;2023-02-28T02:43:18;21.10;21.00
20610;DHT22;10463;52.378;9.688;2023-02-28T02:46:09;21.10;21.10
20610;DHT22;10463;52.378;9.688;2023-02-28T02:48:56;21.10;21.00
20610;DHT22;10463;52.378;9.688;2023-02-28T02:51:44;21.10;21.00
20610;DHT22;10463;52.378;9.688;2023-02-28T02:54:35;21.10;21.00
20610;DHT22;10463;52.378;9.688;2023-02-28T02:57:24;21.10;21.00
20610;DHT22;10463;52.378;9.688;2023-02-28T03:00:13;21.10;21.00
20610;DHT22;10463;52.378;9.688;2023-02-28T03:03:00;21.10;21.00
20610;DHT22;10463;52.378;9.688;2023-02-28T03:05:48;21.10;21.00
20610;DHT22;10463;52.378;9.688;2023-02-28T03:08:37;21.10;21.10
20610;DHT22;10463;52.378;9.688;2023-02-28T03:11:22;21.10;21.10
20610;DHT22;10463;52.378;9.688;2023-02-28T03:14:25;21.10;21.00
20610;DHT22;10463;52.378;9.688;2023-02-28T03:17:26;21.10;21.10
20610;DHT22;10463;52.378;9.688;2023-02-28T03:20:27;21.00;21.00
20610;DHT22;10463;52.378;9.688;2023-02-28T03:23:20;21.00;21.00
20610;DHT22;10463;52.378;9.688;2023-02-28T03:26:13;21.00;21.00
20610;DHT22;10463;52.378;9.688;2023-02-28T03:29:06;21.00;21.00
20610;DHT22;10463;52.378;9.688;2023-02-28T03:31:57;21.00;21.00
20610;DHT22;10463;52.378;9.688;2023-02-28T03:34:48;21.00;21.00
20610;DHT22;10463;52.378;9.688;2023-02-28T03:37:35;21.00;21.00
20610;DHT22;10463;52.378;9.688;2023-02-28T03:40:24;21.00;21.00
20610;DHT22;10463;52.378;9.688;2023-02-28T03:43:18;21.00;21.00
20610;DHT22;10463;52.378;9.688;2023-02-28T03:46:09;21.00;21.00
20610;DHT22;10463;52.378;9.688;2023-02-28T03:49:00;21.00;21.00
20610;DHT22;10463;52.378;9.688;2023-02-28T03:51:47;21.00;21.00
20610;DHT22;10463;52.378;9.688;2023-02-28T03:54:40;21.00;21.00
20610;DHT22;10463;52.378;9.688;2023-02-28T03:57:32;21.00;21.00
20610;DHT22;10463;52.378;9.688;2023-02-28T04:00:26;21.00;21.00
20610;DHT22;10463;52.378;9.688;2023-02-28T04:03:13;21.00;21.00
20610;DHT22;10463;52.378;9.688;2023-02-28T04:05:58;20.90;20.90
20610;DHT22;10463;52.378;9.688;2023-02-28T04:08:43;20.90;21.00
20610;DHT22;10463;52.378;9.688;2023-02-28T04:11:33;20.90;20.90
20610;DHT22;10463;52.378;9.688;2023-02-28T04:14:19;20.90;21.00
20610;DHT22;10463;52.378;9.688;2023-02-28T04:17:05;20.90;21.00
20610;DHT22;10463;52.378;9.688;2023-02-28T04:19:50;20.90;21.00
20610;DHT22;10463;52.378;9.688;2023-02-28T04:22:35;20.90;21.00
20610;DHT22;10463;52.378;9.688;2023-02-28T04:25:20;20.90;21.00
20610;DHT22;10463;52.378;9.688;2023-02-28T04:28:05;20.90;21.00
20610;DHT22;10463;52.378;9.688;2023-02-28T04:30:55;20.90;21.00
20610;DHT22;10463;52.378;9.688;2023-02-28T04:33:41;20.90;21.00
20610;DHT22;10463;52.378;9.688;2023-02-28T04:36:27;20.80;20.90
20610;DHT22;10463;52.378;9.688;2023-02-28T04:39:12;20.80;20.90
20610;DHT22;10463;52.378;9.688;2023-02-28T04:41:57;20.80;20.90
20610;DHT22;10463;52.378;9.688;2023-02-28T04:44:42;20.80;20.90
20610;DHT22;10463;52.378;9.688;2023-02-28T04:47:26;20.80;20.90
20610;DHT22;10463;52.378;9.688;2023-02-28T04:50:12;20.80;20.90
20610;DHT22;10463;52.378;9.688;2023-02-28T04:52:57;20.80;20.90
20610;DHT22;10463;52.378;9.688;2023-02-28T04:55:41;20.80;20.90
20610;DHT22;10463;52.378;9.688;2023-02-28T04:58:26;20.80;20.90
20610;DHT22;10463;52.378;9.688;2023-02-28T05:01:23;20.80;20.90
20610;DHT22;10463;52.378;9.688;2023-02-28T05:04:09;20.80;20.90
20610;DHT22;10463;52.378;9.688;2023-02-28T05:06:55;20.80;20.90
20610;DHT22;10463;52.378;9.688;2023-02-28T05:09:39;20.80;20.90
20610;DHT22;10463;52.378;9.688;2023-02-28T05:12:25;20.80;20.90
20610;DHT22;10463;52.378;9.688;2023-02-28T05:15:12;20.70;20.90
20610;DHT22;10463;52.378;9.688;2023-02-28T05:17:58;20.70;20.90
20610;DHT22;10463;52.378;9.688;2023-02-28T05:20:43;20.80;21.00
20610;DHT22;10463;52.378;9.688;2023-02-28T05:23:30;20.70;20.90
20610;DHT22;10463;52.378;9.688;2023-02-28T05:26:14;20.80;20.90
20610;DHT22;10463;52.378;9.688;2023-02-28T05:28:59;20.70;20.90
20610;DHT22;10463;52.378;9.688;2023-02-28T05:31:43;20.80;20.90
20610;DHT22;10463;52.378;9.688;2023-02-28T05:34:28;20.70;20.90
20610;DHT22;10463;52.378;9.688;2023-02-28T05:37:14;20.70;20.90
20610;DHT22;10463;52.378;9.688;2023-02-28T05:40:01;20.70;20.90
20610;DHT22;10463;52.378;9.688;2023-02-28T05:42:46;20.70;21.10
20610;DHT22;10463;52.378;9.688;2023-02-28T05:45:31;20.70;20.90
20610;DHT22;10463;52.378;9.688;2023-02-28T05:48:15;20.70;20.90
20610;DHT22;10463;52.378;9.688;2023-02-28T05:51:01;20.70;20.90
20610;DHT22;10463;52.378;9.688;2023-02-28T05:53:47;20.60;20.80
20610;DHT22;10463;52.378;9.688;2023-02-28T05:56:35;20.60;20.80
20610;DHT22;10463;52.378;9.688;2023-02-28T05:59:20;20.60;20.80
20610;DHT22;10463;52.378;9.688;2023-02-28T06:02:11;20.60;20.80
20610;DHT22;10463;52.378;9.688;2023-02-28T06:04:56;20.60;20.90
20610;DHT22;10463;52.378;9.688;2023-02-28T06:07:41;20.60;20.90
20610;DHT22;10463;52.378;9.688;2023-02-28T06:10:26;20.60;20.80
20610;DHT22;10463;52.378;9.688;2023-02-28T06:13:12;20.60;20.90
20610;DHT22;10463;52.378;9.688;2023-02-28T06:16:00;20.60;20.80
20610;DHT22;10463;52.378;9.688;2023-02-28T06:18:44;20.60;20.90
20610;DHT22;10463;52.378;9.688;2023-02-28T06:21:30;20.60;20.90
20610;DHT22;10463;52.378;9.688;2023-02-28T06:24:15;20.60;20.90
20610;DHT22;10463;52.378;9.688;2023-02-28T06:27:00;20.60;20.90
20610;DHT22;10463;52.378;9.688;2023-02-28T06:29:54;20.60;20.90
20610;DHT22;10463;52.378;9.688;2023-02-28T06:32:40;20.50;20.80
20610;DHT22;10463;52.378;9.688;2023-02-28T06:35:25;20.50;20.80
20610;DHT22;10463;52.378;9.688;2023-02-28T06:38:11;20.50;20.80
20610;DHT22;10463;52.378;9.688;2023-02-28T06:40:57;20.50;20.90
20610;DHT22;10463;52.378;9.688;2023-02-28T06:43:43;20.50;20.80
20610;DHT22;10463;52.378;9.688;2023-02-28T06:46:29;20.50;20.90
20610;DHT22;10463;52.378;9.688;2023-02-28T06:49:15;20.50;20.80
20610;DHT22;10463;52.378;9.688;2023-02-28T06:52:00;20.50;20.90
20610;DHT22;10463;52.378;9.688;2023-02-28T06:54:45;20.50;20.90
20610;DHT22;10463;52.378;9.688;2023-02-28T06:57:31;20.50;20.90
20610;DHT22;10463;52.378;9.688;2023-02-28T07:00:19;20.50;20.90
20610;DHT22;10463;52.378;9.688;2023-02-28T07:03:05;20.50;20.90
20610;DHT22;10463;52.378;9.688;2023-02-28T07:05:50;20.40;20.80
20610;DHT22;10463;52.378;9.688;2023-02-28T07:08:35;20.50;20.90
20610;DHT22;10463;52.378;9.688;2023-02-28T07:11:27;20.50;20.90
20610;DHT22;10463;52.378;9.688;2023-02-28T07:14:12;20.40;20.80
20610;DHT22;10463;52.378;9.688;2023-02-28T07:16:57;20.40;20.90
20610;DHT22;10463;52.378;9.688;2023-02-28T07:19:43;20.40;20.80
20610;DHT22;10463;52.378;9.688;2023-02-28T07:22:27;20.40;20.90
20610;DHT22;10463;52.378;9.688;2023-02-28T07:25:13;20.40;20.90
20610;DHT22;10463;52.378;9.688;2023-02-28T07:27:58;20.40;20.90
20610;DHT22;10463;52.378;9.688;2023-02-28T07:30:43;20.40;20.90
20610;DHT22;10463;52.378;9.688;2023-02-28T07:33:28;20.40;20.90
20610;DHT22;10463;52.378;9.688;2023-02-28T07:36:17;20.40;20.90
20610;DHT22;10463;52.378;9.688;2023-02-28T07:39:03;20.40;20.90
20610;DHT22;10463;52.378;9.688;2023-02-28T07:41:49;20.40;20.90
20610;DHT22;10463;52.378;9.688;2023-02-28T07:47:15;20.40;20.90
20610;DHT22;10463;52.378;9.688;2023-02-28T07:49:59;20.40;20.90
20610;DHT22;10463;52.378;9.688;2023-02-28T07:52:45;20.40;20.90
20610;DHT22;10463;52.378;9.688;2023-02-28T07:55:30;20.40;20.90
20610;DHT22;10463;52.378;9.688;2023-02-28T07:58:15;20.40;20.90
20610;DHT22;10463;52.378;9.688;2023-02-28T08:01:06;20.40;21.00
20610;DHT22;10463;52.378;9.688;2023-02-28T08:03:51;20.40;21.00
20610;DHT22;10463;52.378;9.688;2023-02-28T08:06:36;20.40;21.00
20610;DHT22;10463;52.378;9.688;2023-02-28T08:09:22;20.40;21.00
20610;DHT22;10463;52.378;9.688;2023-02-28T08:12:07;20.40;21.00
20610;DHT22;10463;52.378;9.688;2023-02-28T08:14:52;20.40;21.00
20610;DHT22;10463;52.378;9.688;2023-02-28T08:17:37;20.40;21.00
20610;DHT22;10463;52.378;9.688;2023-02-28T08:20:22;20.40;21.00
20610;DHT22;10463;52.378;9.688;2023-02-28T08:23:07;20.40;21.00
20610;DHT22;10463;52.378;9.688;2023-02-28T08:25:56;20.40;21.00
20610;DHT22;10463;52.378;9.688;2023-02-28T08:28:41;20.40;21.00
20610;DHT22;10463;52.378;9.688;2023-02-28T08:31:25;20.40;21.00
20610;DHT22;10463;52.378;9.688;2023-02-28T08:34:13;20.40;21.00
20610;DHT22;10463;52.378;9.688;2023-02-28T08:36:58;20.40;21.10
20610;DHT22;10463;52.378;9.688;2023-02-28T08:39:43;20.40;21.10
20610;DHT22;10463;52.378;9.688;2023-02-28T08:42:30;20.50;21.20
20610;DHT22;10463;52.378;9.688;2023-02-28T08:45:15;20.50;21.20
20610;DHT22;10463;52.378;9.688;2023-02-28T08:48:00;20.50;21.20
20610;DHT22;10463;52.378;9.688;2023-02-28T08:50:44;20.50;21.20
20610;DHT22;10463;52.378;9.688;2023-02-28T08:53:30;20.50;21.20
20610;DHT22;10463;52.378;9.688;2023-02-28T08:56:16;20.50;21.20
20610;DHT22;10463;52.378;9.688;2023-02-28T08:59:02;20.50;21.20
20610;DHT22;10463;52.378;9.688;2023-02-28T09:01:47;20.50;21.20
20610;DHT22;10463;52.378;9.688;2023-02-28T09:04:33;20.60;21.30
20610;DHT22;10463;52.378;9.688;2023-02-28T09:07:18;20.60;21.80
20610;DHT22;10463;52.378;9.688;2023-02-28T09:10:03;20.60;21.30
20610;DHT22;10463;52.378;9.688;2023-02-28T09:12:48;20.60;21.30
20610;DHT22;10463;52.378;9.688;2023-02-28T09:15:35;20.60;21.30
20610;DHT22;10463;52.378;9.688;2023-02-28T09:18:21;20.60;21.30
20610;DHT22;10463;52.378;9.688;2023-02-28T09:21:07;20.60;21.30
20610;DHT22;10463;52.378;9.688;2023-02-28T09:23:52;20.60;21.30
20610;DHT22;10463;52.378;9.688;2023-02-28T09:26:37;20.70;21.40
20610;DHT22;10463;52.378;9.688;2023-02-28T09:29:22;20.70;21.40
20610;DHT22;10463;52.378;9.688;2023-02-28T09:32:08;20.70;21.40
20610;DHT22;10463;52.378;9.688;2023-02-28T09:34:53;20.70;21.40
20610;DHT22;10463;52.378;9.688;2023-02-28T09:37:37;20.70;21.40
20610;DHT22;10463;52.378;9.688;2023-02-28T09:40:24;20.70;21.40
20610;DHT22;10463;52.378;9.688;2023-02-28T09:43:13;20.70;21.40
20610;DHT22;10463;52.378;9.688;2023-02-28T09:46:05;20.80;21.50
20610;DHT22;10463;52.378;9.688;2023-02-28T09:48:55;20.80;21.50
20610;DHT22;10463;52.378;9.688;2023-02-28T09:51:49;20.80;21.50
20610;DHT22;10463;52.378;9.688;2023-02-28T09:54:36;20.80;21.50
20610;DHT22;10463;52.378;9.688;2023-02-28T09:57:27;20.80;21.50
20610;DHT22;10463;52.378;9.688;2023-02-28T10:00:19;20.90;21.60
20610;DHT22;10463;52.378;9.688;2023-02-28T10:03:28;20.90;21.60
20610;DHT22;10463;52.378;9.688;2023-02-28T10:06:19;20.90;21.60
20610;DHT22;10463;52.378;9.688;2023-02-28T10:09:10;20.90;21.50
20610;DHT22;10463;52.378;9.688;2023-02-28T10:12:03;21.00;21.70
20610;DHT22;10463;52.378;9.688;2023-02-28T10:14:52;21.00;21.70
20610;DHT22;10463;52.378;9.688;2023-02-28T10:17:40;21.00;21.70
20610;DHT22;10463;52.378;9.688;2023-02-28T10:20:27;21.00;21.80
20610;DHT22;10463;52.378;9.688;2023-02-28T10:23:21;21.00;21.80
20610;DHT22;10463;52.378;9.688;2023-02-28T10:26:12;21.10;21.90
20610;DHT22;10463;52.378;9.688;2023-02-28T10:28:58;21.10;21.90
20610;DHT22;10463;52.378;9.688;2023-02-28T10:31:43;21.10;22.00
20610;DHT22;10463;52.378;9.688;2023-02-28T10:34:28;21.20;22.10
20610;DHT22;10463;52.378;9.688;2023-02-28T10:37:13;21.10;22.00
20610;DHT22;10463;52.378;9.688;2023-02-28T10:39:59;21.20;22.10
20610;DHT22;10463;52.378;9.688;2023-02-28T10:42:55;21.20;22.20
20610;DHT22;10463;52.378;9.688;2023-02-28T10:45:53;21.30;22.20
20610;DHT22;10463;52.378;9.688;2023-02-28T10:48:41;21.30;22.20
20610;DHT22;10463;52.378;9.688;2023-02-28T10:51:35;21.30;22.30
20610;DHT22;10463;52.378;9.688;2023-02-28T10:54:26;21.40;22.30
20610;DHT22;10463;52.378;9.688;2023-02-28T10:57:20;21.40;22.20
20610;DHT22;10463;52.378;9.688;2023-02-28T11:00:15;21.50;22.30
20610;DHT22;10463;52.378;9.688;2023-02-28T11:03:01;21.50;22.30
20610;DHT22;10463;52.378;9.688;2023-02-28T11:05:45;21.50;22.30
20610;DHT22;10463;52.378;9.688;2023-02-28T11:08:31;21.60;22.40
20610;DHT22;10463;52.378;9.688;2023-02-28T11:11:17;21.60;22.90
20610;DHT22;10463;52.378;9.688;2023-02-28T11:14:05;21.70;22.40
20610;DHT22;10463;52.378;9.688;2023-02-28T11:16:51;21.70;22.30
20610;DHT22;10463;52.378;9.688;2023-02-28T11:19:44;21.70;22.30
20610;DHT22;10463;52.378;9.688;2023-02-28T11:22:33;21.80;22.40
20610;DHT22;10463;52.378;9.688;2023-02-28T11:25:24;21.80;22.40
20610;DHT22;10463;52.378;9.688;2023-02-28T11:28:28;21.80;22.40
20610;DHT22;10463;52.378;9.688;2023-02-28T11:31:18;21.90;22.50
20610;DHT22;10463;52.378;9.688;2023-02-28T11:34:24;21.90;22.40
20610;DHT22;10463;52.378;9.688;2023-02-28T11:37:13;21.90;22.50
20610;DHT22;10463;52.378;9.688;2023-02-28T11:39:59;22.00;22.60
20610;DHT22;10463;52.378;9.688;2023-02-28T11:42:55;22.00;22.60
20610;DHT22;10463;52.378;9.688;2023-02-28T11:45:54;22.10;22.70
20610;DHT22;10463;52.378;9.688;2023-02-28T11:48:53;22.10;22.70
20610;DHT22;10463;52.378;9.688;2023-02-28T11:51:47;22.10;22.70
20610;DHT22;10463;52.378;9.688;2023-02-28T11:55:07;22.20;22.70
20610;DHT22;10463;52.378;9.688;2023-02-28T11:58:17;22.20;22.70
20610;DHT22;10463;52.378;9.688;2023-02-28T12:01:19;22.30;22.70
20610;DHT22;10463;52.378;9.688;2023-02-28T12:04:25;22.30;22.70
20610;DHT22;10463;52.378;9.688;2023-02-28T12:07:20;22.30;22.70
20610;DHT22;10463;52.378;9.688;2023-02-28T12:10:20;22.40;22.70
20610;DHT22;10463;52.378;9.688;2023-02-28T12:13:17;22.50;22.60
20610;DHT22;10463;52.378;9.688;2023-02-28T12:16:37;22.50;22.50
20610;DHT22;10463;52.378;9.688;2023-02-28T12:19:29;22.60;22.70
20610;DHT22;10463;52.378;9.688;2023-02-28T12:22:29;22.60;22.60
20610;DHT22;10463;52.378;9.688;2023-02-28T12:25:50;22.60;22.70
20610;DHT22;10463;52.378;9.688;2023-02-28T12:28:44;22.70;22.80
20610;DHT22;10463;52.378;9.688;2023-02-28T12:31:34;22.70;22.70
20610;DHT22;10463;52.378;9.688;2023-02-28T12:34:25;22.80;22.80
20610;DHT22;10463;52.378;9.688;2023-02-28T12:37:19;22.80;22.80
20610;DHT22;10463;52.378;9.688;2023-02-28T12:40:12;22.80;23.20
20610;DHT22;10463;52.378;9.688;2023-02-28T12:43:02;22.90;23.30
20610;DHT22;10463;52.378;9.688;2023-02-28T12:45:51;22.90;22.70
20610;DHT22;10463;52.378;9.688;2023-02-28T12:48:42;23.00;22.60
20610;DHT22;10463;52.378;9.688;2023-02-28T12:51:28;23.00;22.50
20610;DHT22;10463;52.378;9.688;2023-02-28T12:54:24;23.10;22.50
20610;DHT22;10463;52.378;9.688;2023-02-28T12:57:16;23.10;22.50
20610;DHT22;10463;52.378;9.688;2023-02-28T13:00:10;23.10;22.40
20610;DHT22;10463;52.378;9.688;2023-02-28T13:03:24;23.10;22.40
20610;DHT22;10463;52.378;9.688;2023-02-28T13:06:34;23.20;22.50
20610;DHT22;10463;52.378;9.688;2023-02-28T13:09:25;23.20;22.40
20610;DHT22;10463;52.378;9.688;2023-02-28T13:12:14;23.20;22.40
20610;DHT22;10463;52.378;9.688;2023-02-28T13:15:18;23.30;22.50
20610;DHT22;10463;52.378;9.688;2023-02-28T13:18:20;23.30;22.50
20610;DHT22;10463;52.378;9.688;2023-02-28T13:21:24;23.30;22.50
20610;DHT22;10463;52.378;9.688;2023-02-28T13:24:09;23.40;22.50
20610;DHT22;10463;52.378;9.688;2023-02-28T13:27:36;23.40;22.50
20610;DHT22;10463;52.378;9.688;2023-02-28T13:31:01;23.50;22.50
20610;DHT22;10463;52.378;9.688;2023-02-28T13:34:13;23.50;22.50
20610;DHT22;10463;52.378;9.688;2023-02-28T13:37:32;23.60;22.50
20610;DHT22;10463;52.378;9.688;2023-02-28T13:40:31;23.60;22.50
20610;DHT22;10463;52.378;9.688;2023-02-28T13:43:59;23.60;22.50
20610;DHT22;10463;52.378;9.688;2023-02-28T13:47:20;23.70;22.50
20610;DHT22;10463;52.378;9.688;2023-02-28T13:50:27;23.70;22.50
20610;DHT22;10463;52.378;9.688;2023-02-28T13:53:50;23.80;22.50
20610;DHT22;10463;52.378;9.688;2023-02-28T13:56:48;23.80;22.40
20610;DHT22;10463;52.378;9.688;2023-02-28T13:59:46;23.80;22.40
20610;DHT22;10463;52.378;9.688;2023-02-28T14:02:54;23.90;22.50
20610;DHT22;10463;52.378;9.688;2023-02-28T14:05:44;23.90;22.40
20610;DHT22;10463;52.378;9.688;2023-02-28T14:08:29;23.90;22.50
20610;DHT22;10463;52.378;9.688;2023-02-28T14:11:27;24.00;22.50
20610;DHT22;10463;52.378;9.688;2023-02-28T14:14:56;24.00;22.40
20610;DHT22;10463;52.378;9.688;2023-02-28T14:17:41;24.00;22.50
20610;DHT22;10463;52.378;9.688;2023-02-28T14:20:31;24.10;22.50
20610;DHT22;10463;52.378;9.688;2023-02-28T14:23:31;24.10;22.50
20610;DHT22;10463;52.378;9.688;2023-02-28T14:32:54;24.20;22.50
20610;DHT22;10463;52.378;9.688;2023-02-28T14:36:04;24.30;22.50
20610;DHT22;10463;52.378;9.688;2023-02-28T14:38:53;24.30;22.50
20610;DHT22;10463;52.378;9.688;2023-02-28T14:41:42;24.30;22.40
20610;DHT22;10463;52.378;9.688;2023-02-28T14:44:27;24.30;22.40
20610;DHT22;10463;52.378;9.688;2023-02-28T14:47:15;24.40;22.40
20610;DHT22;10463;52.378;9.688;2023-02-28T14:50:04;24.40;22.40
20610;DHT22;10463;52.378;9.688;2023-02-28T14:52:52;24.40;22.40
20610;DHT22;10463;52.378;9.688;2023-02-28T14:55:43;24.50;22.30
20610;DHT22;10463;52.378;9.688;2023-02-28T14:58:30;24.50;22.30
20610;DHT22;10463;52.378;9.688;2023-02-28T15:01:19;24.50;22.30
20610;DHT22;10463;52.378;9.688;2023-02-28T15:04:11;24.50;22.20
20610;DHT22;10463;52.378;9.688;2023-02-28T15:07:13;24.60;22.20
20610;DHT22;10463;52.378;9.688;2023-02-28T15:10:13;24.60;22.30
20610;DHT22;10463;52.378;9.688;2023-02-28T15:13:00;24.60;22.20
20610;DHT22;10463;52.378;9.688;2023-02-28T15:15:51;24.60;22.20
20610;DHT22;10463;52.378;9.688;2023-02-28T15:18:45;24.70;22.00
20610;DHT22;10463;52.378;9.688;2023-02-28T15:21:34;24.70;22.00
20610;DHT22;10463;52.378;9.688;2023-02-28T15:24:34;24.70;22.00
20610;DHT22;10463;52.378;9.688;2023-02-28T15:27:22;24.80;22.10
20610;DHT22;10463;52.378;9.688;2023-02-28T15:30:15;24.70;22.00
20610;DHT22;10463;52.378;9.688;2023-02-28T15:33:22;24.80;22.10
20610;DHT22;10463;52.378;9.688;2023-02-28T15:36:15;24.80;22.10
20610;DHT22;10463;52.378;9.688;2023-02-28T15:39:02;24.80;22.10
20610;DHT22;10463;52.378;9.688;2023-02-28T15:41:49;24.80;22.10
20610;DHT22;10463;52.378;9.688;2023-02-28T15:44:34;24.80;22.10
20610;DHT22;10463;52.378;9.688;2023-02-28T15:47:22;24.80;22.10
20610;DHT22;10463;52.378;9.688;2023-02-28T15:50:12;24.80;22.10
20610;DHT22;10463;52.378;9.688;2023-02-28T15:53:00;24.80;22.10
20610;DHT22;10463;52.378;9.688;2023-02-28T15:55:55;24.80;22.10
20610;DHT22;10463;52.378;9.688;2023-02-28T15:58:42;24.80;22.10
20610;DHT22;10463;52.378;9.688;2023-02-28T16:01:29;24.80;22.10
20610;DHT22;10463;52.378;9.688;2023-02-28T16:04:19;24.80;22.10
20610;DHT22;10463;52.378;9.688;2023-02-28T16:07:05;24.80;22.10
20610;DHT22;10463;52.378;9.688;2023-02-28T16:09:50;24.80;22.10
20610;DHT22;10463;52.378;9.688;2023-02-28T16:12:38;24.80;22.10
20610;DHT22;10463;52.378;9.688;2023-02-28T16:15:27;24.80;22.10
20610;DHT22;10463;52.378;9.688;2023-02-28T16:18:13;24.80;22.10
20610;DHT22;10463;52.378;9.688;2023-02-28T16:20:58;24.80;22.10
20610;DHT22;10463;52.378;9.688;2023-02-28T16:23:42;24.80;22.10
20610;DHT22;10463;52.378;9.688;2023-02-28T16:26:27;24.80;22.10
20610;DHT22;10463;52.378;9.688;2023-02-28T16:29:20;24.80;22.10
20610;DHT22;10463;52.378;9.688;2023-02-28T16:32:07;24.80;22.10
20610;DHT22;10463;52.378;9.688;2023-02-28T16:34:52;24.80;22.10
20610;DHT22;10463;52.378;9.688;2023-02-28T16:37:37;24.80;22.00
20610;DHT22;10463;52.378;9.688;2023-02-28T16:40:24;24.80;21.90
20610;DHT22;10463;52.378;9.688;2023-02-28T16:43:18;24.80;21.90
20610;DHT22;10463;52.378;9.688;2023-02-28T16:46:04;24.80;21.80
20610;DHT22;10463;52.378;9.688;2023-02-28T16:48:51;24.80;21.80
20610;DHT22;10463;52.378;9.688;2023-02-28T16:51:36;24.70;21.70
20610;DHT22;10463;52.378;9.688;2023-02-28T16:54:20;24.70;21.70
20610;DHT22;10463;52.378;9.688;2023-02-28T16:57:05;24.70;21.70
20610;DHT22;10463;52.378;9.688;2023-02-28T16:59:51;24.70;21.70
20610;DHT22;10463;52.378;9.688;2023-02-28T17:02:35;24.70;21.70
20610;DHT22;10463;52.378;9.688;2023-02-28T17:05:22;24.60;21.60
20610;DHT22;10463;52.378;9.688;2023-02-28T17:08:08;24.60;21.60
20610;DHT22;10463;52.378;9.688;2023-02-28T17:10:53;24.60;21.60
20610;DHT22;10463;52.378;9.688;2023-02-28T17:13:37;24.60;21.60
20610;DHT22;10463;52.378;9.688;2023-02-28T17:16:26;24.50;21.50
20610;DHT22;10463;52.378;9.688;2023-02-28T17:19:14;24.50;21.50
20610;DHT22;10463;52.378;9.688;2023-02-28T17:22:00;24.50;21.60
20610;DHT22;10463;52.378;9.688;2023-02-28T17:24:45;24.40;21.60
20610;DHT22;10463;52.378;9.688;2023-02-28T17:27:30;24.40;21.70
20610;DHT22;10463;52.378;9.688;2023-02-28T17:30:18;24.40;21.80
20610;DHT22;10463;52.378;9.688;2023-02-28T17:33:03;24.40;21.70
20610;DHT22;10463;52.378;9.688;2023-02-28T17:35:48;24.40;21.80
20610;DHT22;10463;52.378;9.688;2023-02-28T17:38:34;24.30;21.70
20610;DHT22;10463;52.378;9.688;2023-02-28T17:41:20;24.30;21.80
20610;DHT22;10463;52.378;9.688;2023-02-28T17:44:05;24.30;21.80
20610;DHT22;10463;52.378;9.688;2023-02-28T17:46:50;24.30;21.80
20610;DHT22;10463;52.378;9.688;2023-02-28T17:49:35;24.20;21.70
20610;DHT22;10463;52.378;9.688;2023-02-28T17:52:19;24.20;21.70
20610;DHT22;10463;52.378;9.688;2023-02-28T17:55:10;24.20;21.70
20610;DHT22;10463;52.378;9.688;2023-02-28T17:57:56;24.20;21.70
20610;DHT22;10463;52.378;9.688;2023-02-28T18:00:40;24.10;21.70
20610;DHT22;10463;52.378;9.688;2023-02-28T18:03:25;24.10;21.70